Time;durP1;ratioP1;P1;durP2;ratioP2;P2;SDS_P1;SDS_P2;PMS_P1;PMS_P2;Temp;Humidity;BMP_temperature;BMP_pressure;BME280_temperature;BME280_humidity;BME280_pressure;Samples;Min_cycle;Max_cycle;Signal;HPM_P1;HPM_P2
2022/09/25 00:00:00;;;;;;;0.6;0.6;;;;;;;12.7;100.0;101300;;;;
2022/09/25 00:01:00;;;;;;;0.6;0.6;;;;;;;12.7;100.0;101300;;;;
2022/09/25 00:02:00;;;;;;;0.6;0.6;;;;;;;12.7;100.0;101300;;;;
2022/09/25 00:03:00;;;;;;;0.6;0.6;;;;;;;12.6;100.0;101300;;;;
2022/09/25 00:04:00;;;;;;;0.6;0.6;;;;;;;12.6;100.0;101300;;;;
2022/09/25 00:05:00;;;;;;;0.6;0.6;;;;;;;12.5;100.0;101300;;;;
2022/09/25 00:06:01;;;;;;;0.6;0.6;;;;;;;12.5;100.0;101300;;;;
2022/09/25 00:07:00;;;;;;;0.6;0.6;;;;;;;12.6;100.0;101310;;;;
2022/09/25 00:08:00;;;;;;;0.6;0.6;;;;;;;12.6;100.0;101310;;;;
2022/09/25 00:09:01;;;;;;;0.6;0.6;;;;;;;12.5;100.0;101310;;;;
2022/09/25 00:10:00;;;;;;;0.6;0.6;;;;;;;12.5;100.0;101310;;;;
2022/09/25 00:11:04;;;;;;;0.6;0.6;;;;;;;12.5;100.0;101310;;;;
2022/09/25 00:12:00;;;;;;;0.6;0.6;;;;;;;12.5;100.0;101310;;;;
2022/09/25 00:13:00;;;;;;;0.6;0.6;;;;;;;12.5;100.0;101310;;;;
2022/09/25 00:14:00;;;;;;;0.6;0.6;;;;;;;12.5;100.0;101310;;;;
2022/09/25 00:15:00;;;;;;;0.6;0.6;;;;;;;12.4;100.0;101310;;;;
2022/09/25 00:16:01;;;;;;;0.6;0.6;;;;;;;12.4;100.0;101310;;;;
2022/09/25 00:17:00;;;;;;;0.6;0.6;;;;;;;12.4;100.0;101310;;;;
2022/09/25 00:18:00;;;;;;;0.6;0.6;;;;;;;12.4;100.0;101310;;;;
2022/09/25 00:20:00;;;;;;;0.9;0.9;;;;;;;12.5;100.0;101310;;;;
2022/09/25 00:21:00;;;;;;;0.9;0.9;;;;;;;12.4;100.0;101320;;;;
2022/09/25 00:22:00;;;;;;;0.9;0.9;;;;;;;12.4;100.0;101320;;;;
2022/09/25 00:23:01;;;;;;;0.9;0.9;;;;;;;12.4;100.0;101320;;;;
2022/09/25 00:24:02;;;;;;;0.9;0.9;;;;;;;12.4;100.0;101320;;;;
2022/09/25 00:25:01;;;;;;;0.9;0.9;;;;;;;12.4;100.0;101320;;;;
2022/09/25 00:26:00;;;;;;;0.9;0.9;;;;;;;12.4;100.0;101320;;;;
2022/09/25 00:27:00;;;;;;;0.9;0.9;;;;;;;12.5;100.0;101320;;;;
2022/09/25 00:28:00;;;;;;;0.9;0.9;;;;;;;12.5;100.0;101320;;;;
2022/09/25 00:29:00;;;;;;;0.9;0.9;;;;;;;12.4;100.0;101320;;;;
2022/09/25 00:30:00;;;;;;;0.9;0.9;;;;;;;12.4;100.0;101320;;;;
2022/09/25 00:31:00;;;;;;;0.9;0.9;;;;;;;12.4;100.0;101310;;;;
2022/09/25 00:32:00;;;;;;;0.9;0.9;;;;;;;12.4;100.0;101310;;;;
2022/09/25 00:33:00;;;;;;;0.9;0.9;;;;;;;12.4;100.0;101310;;;;
2022/09/25 00:34:01;;;;;;;0.9;0.9;;;;;;;12.4;100.0;101310;;;;
2022/09/25 00:35:00;;;;;;;0.9;0.9;;;;;;;12.3;100.0;101320;;;;
2022/09/25 00:36:03;;;;;;;0.9;0.9;;;;;;;12.3;100.0;101320;;;;
2022/09/25 00:37:00;;;;;;;0.9;0.9;;;;;;;12.4;100.0;101310;;;;
2022/09/25 00:38:00;;;;;;;0.9;0.9;;;;;;;12.4;100.0;101310;;;;
2022/09/25 00:39:00;;;;;;;0.7;0.7;;;;;;;12.4;100.0;101310;;;;
2022/09/25 00:40:00;;;;;;;0.7;0.7;;;;;;;12.4;100.0;101310;;;;
2022/09/25 00:41:00;;;;;;;0.7;0.7;;;;;;;12.4;100.0;101310;;;;
2022/09/25 00:42:00;;;;;;;0.7;0.7;;;;;;;12.4;100.0;101310;;;;
2022/09/25 00:43:00;;;;;;;0.7;0.7;;;;;;;12.4;100.0;101310;;;;
2022/09/25 00:44:01;;;;;;;0.7;0.7;;;;;;;12.4;100.0;101310;;;;
2022/09/25 00:45:00;;;;;;;0.7;0.7;;;;;;;12.4;100.0;101310;;;;
2022/09/25 00:46:01;;;;;;;0.7;0.7;;;;;;;12.4;100.0;101310;;;;
2022/09/25 00:47:00;;;;;;;0.7;0.7;;;;;;;12.4;100.0;101310;;;;
2022/09/25 00:48:01;;;;;;;0.7;0.7;;;;;;;12.4;100.0;101310;;;;
2022/09/25 00:49:03;;;;;;;0.7;0.7;;;;;;;12.4;100.0;101310;;;;
2022/09/25 00:50:01;;;;;;;0.7;0.7;;;;;;;12.4;100.0;101310;;;;
2022/09/25 00:51:00;;;;;;;0.7;0.7;;;;;;;12.4;100.0;101310;;;;
2022/09/25 00:52:05;;;;;;;0.7;0.7;;;;;;;12.4;100.0;101310;;;;
2022/09/25 00:53:04;;;;;;;0.7;0.7;;;;;;;12.4;100.0;101310;;;;
2022/09/25 00:54:03;;;;;;;0.7;0.7;;;;;;;12.4;100.0;101310;;;;
2022/09/25 00:55:04;;;;;;;0.7;0.7;;;;;;;12.4;100.0;101320;;;;
2022/09/25 00:56:01;;;;;;;0.7;0.7;;;;;;;12.4;100.0;101320;;;;
2022/09/25 00:57:02;;;;;;;0.7;0.7;;;;;;;12.4;100.0;101310;;;;
2022/09/25 00:58:00;;;;;;;0.7;0.7;;;;;;;12.4;100.0;101310;;;;
2022/09/25 00:59:00;;;;;;;0.6;0.6;;;;;;;12.4;100.0;101320;;;;
2022/09/25 01:00:01;;;;;;;0.6;0.6;;;;;;;12.4;100.0;101320;;;;
2022/09/25 01:01:00;;;;;;;0.6;0.6;;;;;;;12.4;100.0;101320;;;;
2022/09/25 01:02:00;;;;;;;0.6;0.6;;;;;;;12.4;100.0;101320;;;;
2022/09/25 01:03:00;;;;;;;0.6;0.6;;;;;;;12.4;100.0;101320;;;;
2022/09/25 01:04:00;;;;;;;0.6;0.6;;;;;;;12.4;100.0;101320;;;;
2022/09/25 01:05:02;;;;;;;0.6;0.6;;;;;;;12.4;100.0;101320;;;;
2022/09/25 01:06:01;;;;;;;0.6;0.6;;;;;;;12.4;100.0;101320;;;;
2022/09/25 01:07:00;;;;;;;0.6;0.6;;;;;;;12.4;100.0;101320;;;;
2022/09/25 01:08:02;;;;;;;0.6;0.6;;;;;;;12.4;100.0;101320;;;;
2022/09/25 01:09:00;;;;;;;0.6;0.6;;;;;;;12.2;100.0;101320;;;;
2022/09/25 01:10:01;;;;;;;0.6;0.6;;;;;;;12.2;100.0;101320;;;;
2022/09/25 01:11:00;;;;;;;0.6;0.6;;;;;;;12.4;100.0;101320;;;;
2022/09/25 01:12:00;;;;;;;0.6;0.6;;;;;;;12.4;100.0;101320;;;;
2022/09/25 01:13:00;;;;;;;0.6;0.6;;;;;;;12.3;100.0;101320;;;;
2022/09/25 01:14:02;;;;;;;0.6;0.6;;;;;;;12.3;100.0;101320;;;;
2022/09/25 01:15:00;;;;;;;0.6;0.6;;;;;;;12.2;100.0;101320;;;;
2022/09/25 01:16:01;;;;;;;0.6;0.6;;;;;;;12.2;100.0;101320;;;;
2022/09/25 01:17:06;;;;;;;0.6;0.6;;;;;;;12.3;100.0;101320;;;;
2022/09/25 01:18:10;;;;;;;0.6;0.6;;;;;;;12.3;100.0;101320;;;;
2022/09/25 01:19:05;;;;;;;1.0;0.9;;;;;;;12.2;100.0;101320;;;;
2022/09/25 01:20:10;;;;;;;1.0;0.9;;;;;;;12.2;100.0;101320;;;;
2022/09/25 01:21:07;;;;;;;1.0;0.9;;;;;;;12.2;100.0;101320;;;;
2022/09/25 01:22:10;;;;;;;1.0;0.9;;;;;;;12.2;100.0;101320;;;;
2022/09/25 01:23:10;;;;;;;1.0;0.9;;;;;;;12.1;100.0;101320;;;;
2022/09/25 01:24:10;;;;;;;1.0;0.9;;;;;;;12.1;100.0;101320;;;;
2022/09/25 01:25:10;;;;;;;1.0;0.9;;;;;;;12.1;100.0;101330;;;;
2022/09/25 01:26:15;;;;;;;1.0;0.9;;;;;;;12.1;100.0;101330;;;;
2022/09/25 01:27:10;;;;;;;1.0;0.9;;;;;;;12.1;100.0;101330;;;;
2022/09/25 01:28:07;;;;;;;1.0;0.9;;;;;;;12.1;100.0;101330;;;;
2022/09/25 01:29:00;;;;;;;1.0;0.9;;;;;;;11.9;100.0;101330;;;;
2022/09/25 01:30:00;;;;;;;1.0;0.9;;;;;;;11.9;100.0;101330;;;;
2022/09/25 01:31:03;;;;;;;1.0;0.9;;;;;;;12.1;100.0;101330;;;;
2022/09/25 01:32:10;;;;;;;1.0;0.9;;;;;;;12.1;100.0;101330;;;;
2022/09/25 01:33:06;;;;;;;1.0;0.9;;;;;;;12.1;100.0;101330;;;;
2022/09/25 01:34:04;;;;;;;1.0;0.9;;;;;;;12.1;100.0;101330;;;;
2022/09/25 01:35:04;;;;;;;1.0;0.9;;;;;;;12.1;100.0;101330;;;;
2022/09/25 01:36:10;;;;;;;1.0;0.9;;;;;;;12.1;100.0;101330;;;;
2022/09/25 01:37:05;;;;;;;1.0;0.9;;;;;;;12.1;100.0;101330;;;;
2022/09/25 01:38:01;;;;;;;1.0;0.9;;;;;;;12.1;100.0;101330;;;;
2022/09/25 01:39:06;;;;;;;0.8;0.8;;;;;;;12.1;100.0;101330;;;;
2022/09/25 01:40:06;;;;;;;0.8;0.8;;;;;;;12.1;100.0;101330;;;;
2022/09/25 01:41:07;;;;;;;0.8;0.8;;;;;;;12.0;100.0;101340;;;;
2022/09/25 01:42:08;;;;;;;0.8;0.8;;;;;;;12.0;100.0;101340;;;;
2022/09/25 01:43:07;;;;;;;0.8;0.8;;;;;;;12.0;100.0;101340;;;;
2022/09/25 01:44:10;;;;;;;0.8;0.8;;;;;;;12.0;100.0;101340;;;;
2022/09/25 01:45:03;;;;;;;0.8;0.8;;;;;;;11.9;100.0;101340;;;;
2022/09/25 01:46:06;;;;;;;0.8;0.8;;;;;;;11.9;100.0;101340;;;;
2022/09/25 01:47:05;;;;;;;0.8;0.8;;;;;;;12.0;100.0;101330;;;;
2022/09/25 01:48:01;;;;;;;0.8;0.8;;;;;;;12.0;100.0;101330;;;;
2022/09/25 01:49:10;;;;;;;0.8;0.8;;;;;;;11.9;100.0;101340;;;;
2022/09/25 01:50:03;;;;;;;0.8;0.8;;;;;;;11.9;100.0;101340;;;;
2022/09/25 01:51:03;;;;;;;0.8;0.8;;;;;;;11.8;100.0;101330;;;;
2022/09/25 01:52:01;;;;;;;0.8;0.8;;;;;;;11.8;100.0;101330;;;;
2022/09/25 01:53:03;;;;;;;0.8;0.8;;;;;;;11.8;100.0;101340;;;;
2022/09/25 01:54:06;;;;;;;0.8;0.8;;;;;;;11.8;100.0;101340;;;;
2022/09/25 01:55:07;;;;;;;0.8;0.8;;;;;;;11.8;100.0;101340;;;;
2022/09/25 01:56:03;;;;;;;0.8;0.8;;;;;;;11.8;100.0;101340;;;;
2022/09/25 01:57:09;;;;;;;0.8;0.8;;;;;;;11.8;100.0;101340;;;;
2022/09/25 01:58:06;;;;;;;0.8;0.8;;;;;;;11.8;100.0;101340;;;;
2022/09/25 01:59:09;;;;;;;0.7;0.7;;;;;;;11.8;100.0;101340;;;;
2022/09/25 02:00:03;;;;;;;0.7;0.7;;;;;;;11.8;100.0;101340;;;;
2022/09/25 02:01:03;;;;;;;0.7;0.7;;;;;;;11.8;100.0;101340;;;;
2022/09/25 02:02:02;;;;;;;0.7;0.7;;;;;;;11.8;100.0;101340;;;;
2022/09/25 02:03:09;;;;;;;0.7;0.7;;;;;;;11.8;100.0;101340;;;;
2022/09/25 02:04:04;;;;;;;0.7;0.7;;;;;;;11.8;100.0;101340;;;;
2022/09/25 02:05:04;;;;;;;0.7;0.7;;;;;;;11.6;100.0;101340;;;;
2022/09/25 02:06:01;;;;;;;0.7;0.7;;;;;;;11.6;100.0;101340;;;;
2022/09/25 02:07:03;;;;;;;0.7;0.7;;;;;;;11.7;100.0;101340;;;;
2022/09/25 02:08:03;;;;;;;0.7;0.7;;;;;;;11.7;100.0;101340;;;;
2022/09/25 02:09:03;;;;;;;0.7;0.7;;;;;;;11.6;100.0;101340;;;;
2022/09/25 02:10:04;;;;;;;0.7;0.7;;;;;;;11.6;100.0;101340;;;;
2022/09/25 02:11:02;;;;;;;0.7;0.7;;;;;;;11.7;100.0;101340;;;;
2022/09/25 02:12:03;;;;;;;0.7;0.7;;;;;;;11.7;100.0;101340;;;;
2022/09/25 02:13:06;;;;;;;0.7;0.7;;;;;;;11.7;100.0;101340;;;;
2022/09/25 02:14:04;;;;;;;0.7;0.7;;;;;;;11.7;100.0;101340;;;;
2022/09/25 02:15:02;;;;;;;0.7;0.7;;;;;;;11.6;100.0;101340;;;;
2022/09/25 02:16:04;;;;;;;0.7;0.7;;;;;;;11.6;100.0;101340;;;;
2022/09/25 02:17:01;;;;;;;0.7;0.7;;;;;;;11.6;100.0;101330;;;;
2022/09/25 02:21:10;;;;;;;0.7;0.7;;;;;;;11.6;100.0;101330;;;;
2022/09/25 02:22:10;;;;;;;0.7;0.7;;;;;;;11.6;100.0;101330;;;;
2022/09/25 02:23:06;;;;;;;0.7;0.7;;;;;;;11.6;100.0;101330;;;;
2022/09/25 02:24:01;;;;;;;0.7;0.7;;;;;;;11.6;100.0;101330;;;;
2022/09/25 02:25:08;;;;;;;0.7;0.7;;;;;;;11.5;100.0;101330;;;;
2022/09/25 02:26:00;;;;;;;0.7;0.7;;;;;;;11.5;100.0;101330;;;;
2022/09/25 02:27:00;;;;;;;0.7;0.7;;;;;;;11.4;100.0;101330;;;;
2022/09/25 02:28:00;;;;;;;0.7;0.7;;;;;;;11.4;100.0;101330;;;;
2022/09/25 02:29:01;;;;;;;0.7;0.7;;;;;;;11.3;100.0;101330;;;;
2022/09/25 02:30:00;;;;;;;0.7;0.7;;;;;;;11.3;100.0;101330;;;;
2022/09/25 02:31:01;;;;;;;0.7;0.7;;;;;;;11.4;100.0;101340;;;;
2022/09/25 02:32:02;;;;;;;0.7;0.7;;;;;;;11.4;100.0;101340;;;;
2022/09/25 02:33:00;;;;;;;0.7;0.7;;;;;;;11.3;100.0;101340;;;;
2022/09/25 02:34:00;;;;;;;0.7;0.7;;;;;;;11.3;100.0;101340;;;;
2022/09/25 02:35:00;;;;;;;0.7;0.7;;;;;;;11.4;100.0;101340;;;;
2022/09/25 02:36:02;;;;;;;0.7;0.7;;;;;;;11.4;100.0;101340;;;;
2022/09/25 02:37:00;;;;;;;0.7;0.7;;;;;;;11.4;100.0;101340;;;;
2022/09/25 02:38:00;;;;;;;0.7;0.7;;;;;;;11.4;100.0;101340;;;;
2022/09/25 02:39:01;;;;;;;0.8;0.8;;;;;;;11.3;100.0;101340;;;;
2022/09/25 02:40:01;;;;;;;0.8;0.8;;;;;;;11.3;100.0;101340;;;;
2022/09/25 02:41:06;;;;;;;0.8;0.8;;;;;;;11.3;100.0;101340;;;;
2022/09/25 02:42:09;;;;;;;0.8;0.8;;;;;;;11.3;100.0;101340;;;;
2022/09/25 02:43:08;;;;;;;0.8;0.8;;;;;;;11.2;100.0;101340;;;;
2022/09/25 02:44:10;;;;;;;0.8;0.8;;;;;;;11.2;100.0;101340;;;;
2022/09/25 02:45:10;;;;;;;0.8;0.8;;;;;;;11.2;100.0;101340;;;;
2022/09/25 02:46:07;;;;;;;0.8;0.8;;;;;;;11.2;100.0;101340;;;;
2022/09/25 02:47:07;;;;;;;0.8;0.8;;;;;;;11.1;100.0;101340;;;;
2022/09/25 02:48:04;;;;;;;0.8;0.8;;;;;;;11.1;100.0;101340;;;;
2022/09/25 02:49:01;;;;;;;0.8;0.8;;;;;;;11.1;100.0;101330;;;;
2022/09/25 02:50:05;;;;;;;0.8;0.8;;;;;;;11.1;100.0;101330;;;;
2022/09/25 02:51:03;;;;;;;0.8;0.8;;;;;;;11.1;100.0;101340;;;;
2022/09/25 02:52:05;;;;;;;0.8;0.8;;;;;;;11.1;100.0;101340;;;;
2022/09/25 02:53:07;;;;;;;0.8;0.8;;;;;;;11.1;100.0;101330;;;;
2022/09/25 02:54:06;;;;;;;0.8;0.8;;;;;;;11.1;100.0;101330;;;;
2022/09/25 02:55:05;;;;;;;0.8;0.8;;;;;;;11.0;100.0;101330;;;;
2022/09/25 02:56:10;;;;;;;0.8;0.8;;;;;;;11.0;100.0;101330;;;;
2022/09/25 02:57:05;;;;;;;0.8;0.8;;;;;;;11.0;100.0;101320;;;;
2022/09/25 02:58:10;;;;;;;0.8;0.8;;;;;;;11.0;100.0;101320;;;;
2022/09/25 02:59:04;;;;;;;0.8;0.8;;;;;;;11.0;100.0;101320;;;;
2022/09/25 03:00:03;;;;;;;0.8;0.8;;;;;;;11.0;100.0;101320;;;;
2022/09/25 03:01:03;;;;;;;0.8;0.8;;;;;;;11.0;100.0;101320;;;;
2022/09/25 03:02:00;;;;;;;0.8;0.8;;;;;;;11.0;100.0;101320;;;;
2022/09/25 03:03:02;;;;;;;0.8;0.8;;;;;;;10.9;100.0;101310;;;;
2022/09/25 03:04:02;;;;;;;0.8;0.8;;;;;;;10.9;100.0;101310;;;;
2022/09/25 03:05:01;;;;;;;0.8;0.8;;;;;;;10.9;100.0;101320;;;;
2022/09/25 03:06:01;;;;;;;0.8;0.8;;;;;;;10.9;100.0;101320;;;;
2022/09/25 03:07:00;;;;;;;0.8;0.8;;;;;;;10.9;100.0;101320;;;;
2022/09/25 03:09:01;;;;;;;0.8;0.8;;;;;;;10.9;100.0;101320;;;;
2022/09/25 03:10:00;;;;;;;0.8;0.8;;;;;;;10.9;100.0;101320;;;;
2022/09/25 03:11:00;;;;;;;0.8;0.8;;;;;;;10.8;100.0;101320;;;;
2022/09/25 03:12:02;;;;;;;0.8;0.8;;;;;;;10.8;100.0;101320;;;;
2022/09/25 03:13:10;;;;;;;0.8;0.8;;;;;;;10.8;100.0;101320;;;;
2022/09/25 03:14:01;;;;;;;0.8;0.8;;;;;;;10.8;100.0;101320;;;;
2022/09/25 03:15:00;;;;;;;0.8;0.8;;;;;;;10.8;100.0;101310;;;;
2022/09/25 03:16:10;;;;;;;0.8;0.8;;;;;;;10.8;100.0;101310;;;;
2022/09/25 03:17:03;;;;;;;0.8;0.8;;;;;;;10.8;100.0;101310;;;;
2022/09/25 03:18:00;;;;;;;0.8;0.8;;;;;;;10.8;100.0;101310;;;;
2022/09/25 03:19:00;;;;;;;0.8;0.8;;;;;;;10.7;100.0;101310;;;;
2022/09/25 03:20:00;;;;;;;0.8;0.8;;;;;;;10.7;100.0;101310;;;;
2022/09/25 03:21:00;;;;;;;0.8;0.8;;;;;;;10.7;100.0;101310;;;;
2022/09/25 03:22:00;;;;;;;0.8;0.8;;;;;;;10.7;100.0;101310;;;;
2022/09/25 03:23:00;;;;;;;0.8;0.8;;;;;;;10.7;100.0;101320;;;;
2022/09/25 03:24:00;;;;;;;0.8;0.8;;;;;;;10.7;100.0;101320;;;;
2022/09/25 03:25:00;;;;;;;0.8;0.8;;;;;;;10.6;100.0;101320;;;;
2022/09/25 03:26:00;;;;;;;0.8;0.8;;;;;;;10.6;100.0;101320;;;;
2022/09/25 03:27:00;;;;;;;0.8;0.8;;;;;;;10.6;100.0;101320;;;;
2022/09/25 03:28:00;;;;;;;0.8;0.8;;;;;;;10.6;100.0;101320;;;;
2022/09/25 03:29:01;;;;;;;0.8;0.8;;;;;;;10.6;100.0;101320;;;;
2022/09/25 03:30:01;;;;;;;0.8;0.8;;;;;;;10.6;100.0;101320;;;;
2022/09/25 03:31:02;;;;;;;0.8;0.8;;;;;;;10.5;100.0;101320;;;;
2022/09/25 03:32:00;;;;;;;0.8;0.8;;;;;;;10.5;100.0;101320;;;;
2022/09/25 03:33:00;;;;;;;0.8;0.8;;;;;;;10.5;100.0;101320;;;;
2022/09/25 03:34:00;;;;;;;0.8;0.8;;;;;;;10.5;100.0;101320;;;;
2022/09/25 03:35:00;;;;;;;0.8;0.8;;;;;;;10.5;100.0;101320;;;;
2022/09/25 03:36:01;;;;;;;0.8;0.8;;;;;;;10.5;100.0;101320;;;;
2022/09/25 03:37:00;;;;;;;0.8;0.8;;;;;;;10.5;100.0;101320;;;;
2022/09/25 03:38:00;;;;;;;0.8;0.8;;;;;;;10.5;100.0;101320;;;;
2022/09/25 03:39:00;;;;;;;0.9;0.9;;;;;;;10.5;100.0;101320;;;;
2022/09/25 03:40:00;;;;;;;0.9;0.9;;;;;;;10.5;100.0;101320;;;;
2022/09/25 03:41:00;;;;;;;0.9;0.9;;;;;;;10.5;100.0;101320;;;;
2022/09/25 03:42:00;;;;;;;0.9;0.9;;;;;;;10.5;100.0;101320;;;;
2022/09/25 03:43:01;;;;;;;0.9;0.9;;;;;;;10.5;100.0;101320;;;;
2022/09/25 03:44:00;;;;;;;0.9;0.9;;;;;;;10.5;100.0;101320;;;;
2022/09/25 03:45:01;;;;;;;0.9;0.9;;;;;;;10.4;100.0;101320;;;;
2022/09/25 03:46:00;;;;;;;0.9;0.9;;;;;;;10.4;100.0;101320;;;;
2022/09/25 03:47:00;;;;;;;0.9;0.9;;;;;;;10.4;100.0;101310;;;;
2022/09/25 03:48:00;;;;;;;0.9;0.9;;;;;;;10.4;100.0;101310;;;;
2022/09/25 03:49:00;;;;;;;0.9;0.9;;;;;;;10.4;100.0;101310;;;;
2022/09/25 03:50:00;;;;;;;0.9;0.9;;;;;;;10.4;100.0;101310;;;;
2022/09/25 03:51:00;;;;;;;0.9;0.9;;;;;;;10.4;100.0;101320;;;;
2022/09/25 03:52:00;;;;;;;0.9;0.9;;;;;;;10.4;100.0;101320;;;;
2022/09/25 03:53:00;;;;;;;0.9;0.9;;;;;;;10.4;100.0;101320;;;;
2022/09/25 03:54:00;;;;;;;0.9;0.9;;;;;;;10.4;100.0;101320;;;;
2022/09/25 03:55:00;;;;;;;0.9;0.9;;;;;;;10.3;100.0;101310;;;;
2022/09/25 03:56:01;;;;;;;0.9;0.9;;;;;;;10.3;100.0;101310;;;;
2022/09/25 03:57:01;;;;;;;0.9;0.9;;;;;;;10.3;100.0;101310;;;;
2022/09/25 03:58:00;;;;;;;0.9;0.9;;;;;;;10.3;100.0;101310;;;;
2022/09/25 03:59:00;;;;;;;1.0;1.0;;;;;;;10.3;100.0;101310;;;;
2022/09/25 04:00:02;;;;;;;1.0;1.0;;;;;;;10.3;100.0;101310;;;;
2022/09/25 04:01:00;;;;;;;1.0;1.0;;;;;;;10.3;100.0;101310;;;;
2022/09/25 04:02:01;;;;;;;1.0;1.0;;;;;;;10.3;100.0;101310;;;;
2022/09/25 04:03:00;;;;;;;1.0;1.0;;;;;;;10.2;100.0;101320;;;;
2022/09/25 04:04:02;;;;;;;1.0;1.0;;;;;;;10.2;100.0;101320;;;;
2022/09/25 04:05:01;;;;;;;1.0;1.0;;;;;;;10.2;100.0;101320;;;;
2022/09/25 04:06:03;;;;;;;1.0;1.0;;;;;;;10.2;100.0;101320;;;;
2022/09/25 04:07:00;;;;;;;1.0;1.0;;;;;;;10.2;100.0;101320;;;;
2022/09/25 04:08:00;;;;;;;1.0;1.0;;;;;;;10.2;100.0;101320;;;;
2022/09/25 04:09:00;;;;;;;1.0;1.0;;;;;;;10.1;100.0;101320;;;;
2022/09/25 04:10:00;;;;;;;1.0;1.0;;;;;;;10.1;100.0;101320;;;;
2022/09/25 04:11:00;;;;;;;1.0;1.0;;;;;;;10.2;100.0;101320;;;;
2022/09/25 04:12:00;;;;;;;1.0;1.0;;;;;;;10.2;100.0;101320;;;;
2022/09/25 04:13:00;;;;;;;1.0;1.0;;;;;;;10.2;100.0;101320;;;;
2022/09/25 04:14:00;;;;;;;1.0;1.0;;;;;;;10.2;100.0;101320;;;;
2022/09/25 04:15:01;;;;;;;1.0;1.0;;;;;;;10.2;100.0;101320;;;;
2022/09/25 04:16:02;;;;;;;1.0;1.0;;;;;;;10.2;100.0;101320;;;;
2022/09/25 04:17:00;;;;;;;1.0;1.0;;;;;;;10.1;100.0;101320;;;;
2022/09/25 04:18:06;;;;;;;1.0;1.0;;;;;;;10.1;100.0;101320;;;;
2022/09/25 04:19:00;;;;;;;0.8;0.8;;;;;;;10.1;100.0;101320;;;;
2022/09/25 04:20:00;;;;;;;0.8;0.8;;;;;;;10.1;100.0;101320;;;;
2022/09/25 04:21:01;;;;;;;0.8;0.8;;;;;;;10.1;100.0;101320;;;;
2022/09/25 04:22:00;;;;;;;0.8;0.8;;;;;;;10.1;100.0;101320;;;;
2022/09/25 04:23:00;;;;;;;0.8;0.8;;;;;;;10.1;100.0;101320;;;;
2022/09/25 04:25:01;;;;;;;0.8;0.8;;;;;;;10.0;100.0;101320;;;;
2022/09/25 04:26:00;;;;;;;0.8;0.8;;;;;;;10.0;100.0;101320;;;;
2022/09/25 04:27:00;;;;;;;0.8;0.8;;;;;;;10.1;100.0;101320;;;;
2022/09/25 04:28:00;;;;;;;0.8;0.8;;;;;;;10.1;100.0;101320;;;;
2022/09/25 04:29:00;;;;;;;0.8;0.8;;;;;;;10.0;100.0;101320;;;;
2022/09/25 04:30:00;;;;;;;0.8;0.8;;;;;;;10.0;100.0;101320;;;;
2022/09/25 04:31:01;;;;;;;0.8;0.8;;;;;;;10.0;100.0;101320;;;;
2022/09/25 04:34:01;;;;;;;0.8;0.8;;;;;;;10.0;100.0;101320;;;;
2022/09/25 04:35:00;;;;;;;0.8;0.8;;;;;;;10.0;100.0;101320;;;;
2022/09/25 04:36:00;;;;;;;0.8;0.8;;;;;;;10.0;100.0;101320;;;;
2022/09/25 04:37:00;;;;;;;0.8;0.8;;;;;;;9.9;100.0;101320;;;;
2022/09/25 04:38:00;;;;;;;0.8;0.8;;;;;;;9.9;100.0;101320;;;;
2022/09/25 04:39:00;;;;;;;1.1;1.1;;;;;;;10.0;100.0;101320;;;;
2022/09/25 04:40:00;;;;;;;1.1;1.1;;;;;;;10.0;100.0;101320;;;;
2022/09/25 04:41:00;;;;;;;1.1;1.1;;;;;;;9.9;100.0;101320;;;;
2022/09/25 04:42:00;;;;;;;1.1;1.1;;;;;;;9.9;100.0;101320;;;;
2022/09/25 04:43:01;;;;;;;1.1;1.1;;;;;;;9.9;100.0;101320;;;;
2022/09/25 04:44:03;;;;;;;1.1;1.1;;;;;;;9.9;100.0;101320;;;;
2022/09/25 04:45:00;;;;;;;1.1;1.1;;;;;;;9.9;100.0;101310;;;;
2022/09/25 04:46:01;;;;;;;1.1;1.1;;;;;;;9.9;100.0;101310;;;;
2022/09/25 04:47:00;;;;;;;1.1;1.1;;;;;;;9.9;100.0;101320;;;;
2022/09/25 04:48:00;;;;;;;1.1;1.1;;;;;;;9.9;100.0;101320;;;;
2022/09/25 04:49:00;;;;;;;1.1;1.1;;;;;;;9.9;100.0;101320;;;;
2022/09/25 04:50:00;;;;;;;1.1;1.1;;;;;;;9.9;100.0;101320;;;;
2022/09/25 04:51:00;;;;;;;1.1;1.1;;;;;;;9.9;100.0;101310;;;;
2022/09/25 04:52:00;;;;;;;1.1;1.1;;;;;;;9.9;100.0;101310;;;;
2022/09/25 04:53:00;;;;;;;1.1;1.1;;;;;;;9.8;100.0;101320;;;;
2022/09/25 04:54:00;;;;;;;1.1;1.1;;;;;;;9.8;100.0;101320;;;;
2022/09/25 04:55:00;;;;;;;1.1;1.1;;;;;;;9.8;100.0;101320;;;;
2022/09/25 04:56:01;;;;;;;1.1;1.1;;;;;;;9.8;100.0;101320;;;;
2022/09/25 04:57:01;;;;;;;1.1;1.1;;;;;;;9.8;100.0;101320;;;;
2022/09/25 04:58:00;;;;;;;1.0;1.0;;;;;;;9.8;100.0;101320;;;;
2022/09/25 04:59:00;;;;;;;1.0;1.0;;;;;;;9.8;100.0;101320;;;;
2022/09/25 05:00:00;;;;;;;1.0;1.0;;;;;;;9.8;100.0;101320;;;;
2022/09/25 05:01:04;;;;;;;1.0;1.0;;;;;;;9.8;100.0;101320;;;;
2022/09/25 05:02:00;;;;;;;1.0;1.0;;;;;;;9.8;100.0;101320;;;;
2022/09/25 05:03:01;;;;;;;1.0;1.0;;;;;;;9.8;100.0;101310;;;;
2022/09/25 05:04:06;;;;;;;1.0;1.0;;;;;;;9.8;100.0;101310;;;;
2022/09/25 05:05:00;;;;;;;1.0;1.0;;;;;;;9.8;100.0;101310;;;;
2022/09/25 05:06:00;;;;;;;1.0;1.0;;;;;;;9.8;100.0;101310;;;;
2022/09/25 05:07:00;;;;;;;1.0;1.0;;;;;;;9.8;100.0;101310;;;;
2022/09/25 05:08:00;;;;;;;1.0;1.0;;;;;;;9.8;100.0;101310;;;;
2022/09/25 05:09:00;;;;;;;1.0;1.0;;;;;;;9.7;100.0;101310;;;;
2022/09/25 05:10:00;;;;;;;1.0;1.0;;;;;;;9.7;100.0;101310;;;;
2022/09/25 05:11:00;;;;;;;1.0;1.0;;;;;;;9.7;100.0;101310;;;;
2022/09/25 05:12:00;;;;;;;1.0;1.0;;;;;;;9.7;100.0;101310;;;;
2022/09/25 05:13:01;;;;;;;1.0;1.0;;;;;;;9.7;100.0;101310;;;;
2022/09/25 05:14:00;;;;;;;1.0;1.0;;;;;;;9.7;100.0;101310;;;;
2022/09/25 05:15:01;;;;;;;1.0;1.0;;;;;;;9.7;100.0;101310;;;;
2022/09/25 05:16:00;;;;;;;1.0;1.0;;;;;;;9.7;100.0;101310;;;;
2022/09/25 05:17:00;;;;;;;1.0;1.0;;;;;;;9.6;100.0;101310;;;;
2022/09/25 05:18:00;;;;;;;1.1;1.1;;;;;;;9.6;100.0;101310;;;;
2022/09/25 05:19:00;;;;;;;1.1;1.1;;;;;;;9.7;100.0;101310;;;;
2022/09/25 05:20:01;;;;;;;1.1;1.1;;;;;;;9.7;100.0;101310;;;;
2022/09/25 05:21:02;;;;;;;1.1;1.1;;;;;;;9.6;100.0;101300;;;;
2022/09/25 05:22:00;;;;;;;1.1;1.1;;;;;;;9.6;100.0;101300;;;;
2022/09/25 05:23:03;;;;;;;1.1;1.1;;;;;;;9.7;100.0;101300;;;;
2022/09/25 05:24:01;;;;;;;1.1;1.1;;;;;;;9.7;100.0;101300;;;;
2022/09/25 05:25:00;;;;;;;1.1;1.1;;;;;;;9.6;100.0;101300;;;;
2022/09/25 05:26:01;;;;;;;1.1;1.1;;;;;;;9.6;100.0;101300;;;;
2022/09/25 05:27:00;;;;;;;1.1;1.1;;;;;;;9.6;100.0;101310;;;;
2022/09/25 05:28:00;;;;;;;1.1;1.1;;;;;;;9.6;100.0;101310;;;;
2022/09/25 05:29:00;;;;;;;1.1;1.1;;;;;;;9.6;100.0;101310;;;;
2022/09/25 05:30:00;;;;;;;1.1;1.1;;;;;;;9.6;100.0;101310;;;;
2022/09/25 05:31:02;;;;;;;1.1;1.1;;;;;;;9.5;100.0;101300;;;;
2022/09/25 05:32:00;;;;;;;1.1;1.1;;;;;;;9.5;100.0;101300;;;;
2022/09/25 05:33:00;;;;;;;1.1;1.1;;;;;;;9.6;100.0;101300;;;;
2022/09/25 05:34:00;;;;;;;1.1;1.1;;;;;;;9.6;100.0;101300;;;;
2022/09/25 05:35:00;;;;;;;1.1;1.1;;;;;;;9.5;100.0;101300;;;;
2022/09/25 05:36:01;;;;;;;1.1;1.1;;;;;;;9.5;100.0;101300;;;;
2022/09/25 05:37:00;;;;;;;1.1;1.1;;;;;;;9.5;100.0;101300;;;;
2022/09/25 05:38:00;;;;;;;1.3;1.3;;;;;;;9.5;100.0;101300;;;;
2022/09/25 05:39:00;;;;;;;1.3;1.3;;;;;;;9.6;100.0;101300;;;;
2022/09/25 05:40:00;;;;;;;1.3;1.3;;;;;;;9.6;100.0;101300;;;;
2022/09/25 05:41:03;;;;;;;1.3;1.3;;;;;;;9.6;100.0;101300;;;;
2022/09/25 05:42:01;;;;;;;1.3;1.3;;;;;;;9.6;100.0;101300;;;;
2022/09/25 05:43:01;;;;;;;1.3;1.3;;;;;;;9.5;100.0;101300;;;;
2022/09/25 05:44:01;;;;;;;1.3;1.3;;;;;;;9.5;100.0;101300;;;;
2022/09/25 05:45:07;;;;;;;1.3;1.3;;;;;;;9.5;100.0;101310;;;;
2022/09/25 05:46:00;;;;;;;1.3;1.3;;;;;;;9.5;100.0;101310;;;;
2022/09/25 05:47:00;;;;;;;1.3;1.3;;;;;;;9.5;100.0;101310;;;;
2022/09/25 05:48:01;;;;;;;1.3;1.3;;;;;;;9.5;100.0;101310;;;;
2022/09/25 05:49:00;;;;;;;1.3;1.3;;;;;;;9.5;100.0;101310;;;;
2022/09/25 05:50:00;;;;;;;1.3;1.3;;;;;;;9.5;100.0;101310;;;;
2022/09/25 05:51:00;;;;;;;1.3;1.3;;;;;;;9.5;100.0;101310;;;;
2022/09/25 05:52:00;;;;;;;1.3;1.3;;;;;;;9.5;100.0;101310;;;;
2022/09/25 05:53:01;;;;;;;1.3;1.3;;;;;;;9.5;100.0;101310;;;;
2022/09/25 05:54:00;;;;;;;1.3;1.3;;;;;;;9.5;100.0;101310;;;;
2022/09/25 05:55:02;;;;;;;1.3;1.3;;;;;;;9.5;100.0;101310;;;;
2022/09/25 05:56:02;;;;;;;1.3;1.3;;;;;;;9.5;100.0;101310;;;;
2022/09/25 05:57:00;;;;;;;1.3;1.3;;;;;;;9.5;100.0;101320;;;;
2022/09/25 05:58:01;;;;;;;0.9;0.9;;;;;;;9.5;100.0;101320;;;;
2022/09/25 05:59:00;;;;;;;0.9;0.9;;;;;;;9.5;100.0;101320;;;;
2022/09/25 06:00:00;;;;;;;0.9;0.9;;;;;;;9.5;100.0;101320;;;;
2022/09/25 06:01:02;;;;;;;0.9;0.9;;;;;;;9.5;100.0;101320;;;;
2022/09/25 06:02:00;;;;;;;0.9;0.9;;;;;;;9.5;100.0;101320;;;;
2022/09/25 06:03:00;;;;;;;0.9;0.9;;;;;;;9.5;100.0;101320;;;;
2022/09/25 06:04:00;;;;;;;0.9;0.9;;;;;;;9.5;100.0;101320;;;;
2022/09/25 06:05:00;;;;;;;0.9;0.9;;;;;;;9.5;100.0;101320;;;;
2022/09/25 06:06:00;;;;;;;0.9;0.9;;;;;;;9.5;100.0;101320;;;;
2022/09/25 06:07:01;;;;;;;0.9;0.9;;;;;;;9.5;100.0;101320;;;;
2022/09/25 06:08:00;;;;;;;0.9;0.9;;;;;;;9.5;100.0;101320;;;;
2022/09/25 06:09:00;;;;;;;0.9;0.9;;;;;;;9.6;100.0;101320;;;;
2022/09/25 06:10:00;;;;;;;0.9;0.9;;;;;;;9.6;100.0;101320;;;;
2022/09/25 06:11:01;;;;;;;0.9;0.9;;;;;;;9.6;100.0;101320;;;;
2022/09/25 06:12:00;;;;;;;0.9;0.9;;;;;;;9.6;100.0;101320;;;;
2022/09/25 06:13:01;;;;;;;0.9;0.9;;;;;;;9.6;100.0;101320;;;;
2022/09/25 06:14:00;;;;;;;0.9;0.9;;;;;;;9.6;100.0;101320;;;;
2022/09/25 06:15:00;;;;;;;0.9;0.9;;;;;;;9.7;100.0;101320;;;;
2022/09/25 06:16:00;;;;;;;0.9;0.9;;;;;;;9.7;100.0;101320;;;;
2022/09/25 06:17:00;;;;;;;0.9;0.9;;;;;;;9.7;100.0;101320;;;;
2022/09/25 06:18:00;;;;;;;1.6;1.6;;;;;;;9.7;100.0;101320;;;;
2022/09/25 06:19:00;;;;;;;1.6;1.6;;;;;;;9.6;100.0;101320;;;;
2022/09/25 06:20:00;;;;;;;1.6;1.6;;;;;;;9.6;100.0;101320;;;;
2022/09/25 06:21:01;;;;;;;1.6;1.6;;;;;;;9.6;100.0;101320;;;;
2022/09/25 06:22:00;;;;;;;1.6;1.6;;;;;;;9.6;100.0;101320;;;;
2022/09/25 06:23:00;;;;;;;1.6;1.6;;;;;;;9.6;100.0;101320;;;;
2022/09/25 06:24:00;;;;;;;1.6;1.6;;;;;;;9.6;100.0;101320;;;;
2022/09/25 06:25:00;;;;;;;1.6;1.6;;;;;;;9.7;100.0;101320;;;;
2022/09/25 06:26:01;;;;;;;1.6;1.6;;;;;;;9.7;100.0;101320;;;;
2022/09/25 06:27:00;;;;;;;1.6;1.6;;;;;;;9.8;100.0;101320;;;;
2022/09/25 06:28:00;;;;;;;1.6;1.6;;;;;;;9.8;100.0;101320;;;;
2022/09/25 06:29:05;;;;;;;1.6;1.6;;;;;;;9.7;100.0;101320;;;;
2022/09/25 06:30:00;;;;;;;1.6;1.6;;;;;;;9.7;100.0;101320;;;;
2022/09/25 06:31:01;;;;;;;1.6;1.6;;;;;;;9.8;100.0;101320;;;;
2022/09/25 06:32:00;;;;;;;1.6;1.6;;;;;;;9.8;100.0;101320;;;;